aviador You're here:

LFBI Decoded Metar

POITIERS in FRANCE
Report Time2018-02-21 05:00:00
UTC Time2018-02-21 05:23:44
Flight Rules ifr IFR
Wind020° at 08 kt
W.Decomp.*RWY 03: 7.9 kt HW 1.3 kt LCW
W.Rank020° ranks 13
Current wind is above 020° avg. (6.3)
Visibility6000 m
Phenomena:N/A
Clouds:Broken 009 Hf
Ceiling900 ft
Temp02°C (ISA -12)
Dew Point02°C (100% RH)
AAT-2.6°C
QNH1019 hPa
Density Alt-1,198 ft
Elevation394 ft
Report Wrong Elevation
Raw Report
LFBI 210500Z AUTO 02008KT 6000 BKN009 02/02 Q1019 TEMPO BKN010=

Extra information for LFBI:More info

Metar Taf Metar & Taf Last 4 Metars F.Rules Stats Wind Profile Meteogram Temp Stats Airport Information Weather charts Add Link Nearby VenuesMetar ALERT Operation Metar Decoded Social comments